Time;durP1;ratioP1;P1;durP2;ratioP2;P2;SDS_P1;SDS_P2;PMS_P1;PMS_P2;Temp;Humidity;BMP_temperature;BMP_pressure;BME280_temperature;BME280_humidity;BME280_pressure;Samples;Min_cycle;Max_cycle;Signal;HPM_P1;HPM_P2
2021/03/12 00:01:18;0.00;0.00;0.62;0.00;0.00;0.62;3.70;2.60;;;22.70;24.40;;;;;;2241748;62;20389;-63
2021/03/12 00:04:04;0.00;0.00;0.62;0.00;0.00;0.62;3.43;1.80;;;22.80;24.40;;;;;;2241951;62;20464;-63
2021/03/12 00:06:48;0.00;0.00;0.62;0.00;0.00;0.62;2.57;2.10;;;22.80;24.30;;;;;;2242003;62;20364;-64
2021/03/12 00:09:33;0.00;0.00;0.62;0.00;0.00;0.62;3.90;2.30;;;22.90;24.50;;;;;;2241499;62;20425;-66
2021/03/12 00:12:17;0.00;0.00;0.62;0.00;0.00;0.62;3.20;2.20;;;23.00;24.30;;;;;;2242042;62;20373;-64
2021/03/12 00:15:07;0.00;0.00;0.62;0.00;0.00;0.62;3.10;1.90;;;23.00;24.30;;;;;;2241919;62;20364;-64
2021/03/12 00:17:51;0.00;0.00;0.62;0.00;0.00;0.62;4.60;2.60;;;23.10;24.30;;;;;;2241426;62;20382;-64
2021/03/12 00:20:39;0.00;0.00;0.62;0.00;0.00;0.62;3.07;2.03;;;23.10;24.20;;;;;;2241541;62;20386;-66
2021/03/12 00:23:24;0.00;0.00;0.62;0.00;0.00;0.62;3.03;1.80;;;23.20;24.30;;;;;;2241279;62;20376;-65
2021/03/12 00:26:09;0.00;0.00;0.62;0.00;0.00;0.62;3.10;1.73;;;23.20;24.20;;;;;;2241858;62;20404;-64
2021/03/12 00:28:54;0.00;0.00;0.62;0.00;0.00;0.62;2.60;1.80;;;23.20;24.10;;;;;;2241468;62;20424;-63
2021/03/12 00:31:39;0.00;0.00;0.62;0.00;0.00;0.62;2.57;1.97;;;23.30;24.30;;;;;;2241594;62;20705;-64
2021/03/12 00:34:23;0.00;0.00;0.62;0.00;0.00;0.62;2.63;1.70;;;23.30;24.10;;;;;;2241824;62;20382;-66
2021/03/12 00:37:09;0.00;0.00;0.62;0.00;0.00;0.62;2.60;1.80;;;23.40;24.20;;;;;;2241312;62;20364;-64
2021/03/12 00:39:54;0.00;0.00;0.62;0.00;0.00;0.62;3.03;1.83;;;23.40;24.10;;;;;;2241632;62;20517;-62
2021/03/12 00:42:40;0.00;0.00;0.62;0.00;0.00;0.62;2.87;1.50;;;23.40;24.10;;;;;;2241636;62;20362;-65
2021/03/12 00:45:32;0.00;0.00;0.62;0.00;0.00;0.62;2.60;1.90;;;23.50;24.10;;;;;;2241392;62;20402;-65
2021/03/12 00:48:22;0.00;0.00;0.62;0.00;0.00;0.62;2.70;1.90;;;23.50;24.10;;;;;;2241229;62;20443;-63
2021/03/12 00:51:07;0.00;0.00;0.62;0.00;0.00;0.62;6.70;1.70;;;23.50;24.00;;;;;;2241991;62;20358;-64
2021/03/12 00:54:05;0.00;0.00;0.62;0.00;0.00;0.62;2.40;1.80;;;23.60;24.10;;;;;;2241137;62;20391;-63
2021/03/12 00:56:50;0.00;0.00;0.62;0.00;0.00;0.62;2.23;1.70;;;23.60;24.00;;;;;;2241373;62;20372;-64
2021/03/12 00:59:38;0.00;0.00;0.62;0.00;0.00;0.62;2.67;1.60;;;23.60;24.00;;;;;;2241460;62;20436;-62
2021/03/12 01:02:22;0.00;0.00;0.62;0.00;0.00;0.62;2.00;1.43;;;23.70;24.00;;;;;;2240437;62;20404;-61
2021/03/12 01:05:08;0.00;0.00;0.62;0.00;0.00;0.62;2.03;1.40;;;23.70;24.00;;;;;;2241472;62;20653;-62
2021/03/12 01:07:54;0.00;0.00;0.62;0.00;0.00;0.62;3.13;1.50;;;23.70;24.60;;;;;;2240732;62;20449;-63
2021/03/12 01:10:44;0.00;0.00;0.62;0.00;0.00;0.62;2.50;1.43;;;23.70;24.00;;;;;;2240895;62;20368;-63
2021/03/12 01:13:29;0.00;0.00;0.62;0.00;0.00;0.62;2.43;1.70;;;23.80;24.10;;;;;;2241320;62;20581;-62
2021/03/12 01:16:14;0.00;0.00;0.62;0.00;0.00;0.62;2.73;1.47;;;23.80;24.00;;;;;;2241018;62;20385;-62
2021/03/12 01:18:59;0.00;0.00;0.62;0.00;0.00;0.62;2.27;1.43;;;23.80;24.00;;;;;;2241283;62;20402;-62
2021/03/12 01:21:47;0.00;0.00;0.62;0.00;0.00;0.62;1.60;1.20;;;23.90;24.10;;;;;;2241441;62;20367;-62
2021/03/12 01:24:32;0.00;0.00;0.62;0.00;0.00;0.62;2.47;1.20;;;23.90;24.00;;;;;;2240701;62;20401;-62
2021/03/12 01:27:22;0.00;0.00;0.62;0.00;0.00;0.62;2.13;1.23;;;23.90;24.00;;;;;;2241357;62;20387;-61
2021/03/12 01:30:16;0.00;0.00;0.62;0.00;0.00;0.62;2.90;1.30;;;23.90;23.90;;;;;;2240837;62;20405;-62
2021/03/12 01:33:01;0.00;0.00;0.62;0.00;0.00;0.62;2.90;1.40;;;23.90;23.90;;;;;;2241533;62;20379;-62
2021/03/12 01:35:46;0.00;0.00;0.62;0.00;0.00;0.62;2.20;1.27;;;23.90;23.90;;;;;;2242189;62;20476;-62
2021/03/12 01:38:30;0.00;0.00;0.62;0.00;0.00;0.62;1.60;1.00;;;23.90;23.80;;;;;;2240954;62;20379;-62
2021/03/12 01:41:16;0.00;0.00;0.62;0.00;0.00;0.62;1.60;1.10;;;23.90;23.80;;;;;;2241966;62;20397;-62
2021/03/12 01:44:07;0.00;0.00;0.62;0.00;0.00;0.62;1.87;1.03;;;23.90;23.80;;;;;;2241954;62;20365;-62
2021/03/12 01:46:54;0.00;0.00;0.62;0.00;0.00;0.62;2.43;1.30;;;23.90;23.80;;;;;;2241184;62;20478;-62
2021/03/12 01:49:39;0.00;0.00;0.62;0.00;0.00;0.62;1.57;1.20;;;23.90;24.30;;;;;;2242445;62;20380;-62
2021/03/12 01:52:24;0.00;0.00;0.62;0.00;0.00;0.62;1.90;1.00;;;23.90;23.80;;;;;;2241718;62;20401;-62
2021/03/12 01:55:15;0.00;0.00;0.62;0.00;0.00;0.62;2.07;1.23;;;23.90;23.80;;;;;;2241750;62;20365;-63
2021/03/12 01:58:01;0.00;0.00;0.62;0.00;0.00;0.62;2.20;1.40;;;23.90;23.80;;;;;;2241823;62;20368;-63
2021/03/12 02:00:55;0.00;0.00;0.62;0.00;0.00;0.62;2.10;1.20;;;23.90;23.80;;;;;;2241123;62;20801;-63
2021/03/12 02:03:51;0.00;0.00;0.62;0.00;0.00;0.62;1.60;1.10;;;23.90;23.80;;;;;;2242125;62;20398;-63
2021/03/12 02:06:55;0.00;0.00;0.62;0.00;0.00;0.62;2.27;1.33;;;24.00;23.80;;;;;;2241642;62;20349;-64
2021/03/12 02:09:40;0.00;0.00;0.62;0.00;0.00;0.62;1.90;1.03;;;24.00;23.70;;;;;;2241622;62;20821;-64
2021/03/12 02:12:34;0.00;0.00;0.62;0.00;0.00;0.62;3.10;1.50;;;23.90;23.70;;;;;;2241876;62;20369;-64
2021/03/12 02:15:27;0.00;0.00;0.62;0.00;0.00;0.62;2.10;1.30;;;24.00;23.70;;;;;;2241057;62;20576;-64
2021/03/12 02:18:20;0.00;0.00;0.62;0.00;0.00;0.62;2.00;1.30;;;24.00;23.70;;;;;;2241590;62;20361;-64
2021/03/12 02:21:18;0.00;0.00;0.62;0.00;0.00;0.62;2.10;1.30;;;24.00;23.60;;;;;;2240983;62;20415;-65
2021/03/12 02:24:11;0.00;0.00;0.62;0.00;0.00;0.62;2.93;1.20;;;24.00;23.60;;;;;;2241594;62;20386;-64
2021/03/12 02:27:04;0.00;0.00;0.62;0.00;0.00;0.62;2.00;1.40;;;24.00;23.50;;;;;;2241935;62;20355;-64
2021/03/12 02:29:54;0.00;0.00;0.62;0.00;0.00;0.62;3.10;1.10;;;24.00;23.50;;;;;;2241248;62;20391;-65
2021/03/12 02:32:47;0.00;0.00;0.62;0.00;0.00;0.62;2.30;1.17;;;24.00;23.40;;;;;;2241934;62;20762;-64
2021/03/12 02:35:41;0.00;0.00;0.62;0.00;0.00;0.62;2.70;1.30;;;23.90;23.30;;;;;;2241855;62;20362;-64
2021/03/12 02:38:44;0.00;0.00;0.62;0.00;0.00;0.62;1.50;1.00;;;23.90;23.30;;;;;;2241525;62;20394;-64
2021/03/12 02:41:34;0.00;0.00;0.62;0.00;0.00;0.62;3.53;1.53;;;24.00;23.30;;;;;;2241964;62;20652;-65
2021/03/12 02:44:24;0.00;0.00;0.62;0.00;0.00;0.62;2.07;1.10;;;24.00;23.30;;;;;;2241463;62;20438;-64
2021/03/12 02:47:19;0.00;0.00;0.62;0.00;0.00;0.62;2.50;1.33;;;24.00;23.20;;;;;;2241682;62;20362;-64
2021/03/12 02:50:07;0.00;0.00;0.62;0.00;0.00;0.62;2.23;1.30;;;24.00;23.20;;;;;;2242150;62;20693;-64
2021/03/12 02:52:53;0.00;0.00;0.62;0.00;0.00;0.62;2.20;1.10;;;24.00;23.10;;;;;;2241277;62;20370;-64
2021/03/12 02:55:44;0.00;0.00;0.62;0.00;0.00;0.62;3.20;1.60;;;24.00;23.10;;;;;;2241901;62;20360;-64
2021/03/12 02:58:38;0.00;0.00;0.62;0.00;0.00;0.62;3.07;1.20;;;24.00;23.00;;;;;;2241494;62;20498;-64
2021/03/12 03:01:27;0.00;0.00;0.62;0.00;0.00;0.62;1.93;1.20;;;23.90;22.90;;;;;;2241518;62;20580;-64
2021/03/12 03:04:32;0.00;0.00;0.62;0.00;0.00;0.62;1.43;1.00;;;24.00;23.00;;;;;;2242262;62;20366;-64
2021/03/12 03:07:23;0.00;0.00;0.62;0.00;0.00;0.62;3.07;1.47;;;24.00;23.00;;;;;;2241177;62;20817;-64
2021/03/12 03:10:10;0.00;0.00;0.62;0.00;0.00;0.62;1.90;1.10;;;23.90;22.90;;;;;;2242223;62;20414;-64
2021/03/12 03:12:57;0.00;0.00;0.62;0.00;0.00;0.62;3.27;1.27;;;23.90;22.90;;;;;;2241896;62;20374;-64
2021/03/12 03:15:43;0.00;0.00;0.62;0.00;0.00;0.62;4.90;1.30;;;23.90;22.80;;;;;;2241573;62;20406;-64
2021/03/12 03:18:33;0.00;0.00;0.62;0.00;0.00;0.62;1.73;1.10;;;23.90;22.80;;;;;;2241658;62;20382;-64
2021/03/12 03:21:20;0.00;0.00;0.62;0.00;0.00;0.62;2.03;1.10;;;23.90;22.80;;;;;;2241846;62;20603;-64
2021/03/12 03:24:08;0.00;0.00;0.62;0.00;0.00;0.62;2.30;1.00;;;23.90;22.80;;;;;;2242149;62;20401;-64
2021/03/12 03:26:53;0.00;0.00;0.62;0.00;0.00;0.62;1.77;1.17;;;23.90;22.80;;;;;;2241994;62;20364;-64
2021/03/12 03:29:38;0.00;0.00;0.62;0.00;0.00;0.62;2.60;1.20;;;23.90;22.80;;;;;;2241571;62;20377;-64
2021/03/12 03:32:22;0.00;0.00;0.62;0.00;0.00;0.62;1.70;0.93;;;23.90;22.80;;;;;;2241635;62;20588;-64
2021/03/12 03:35:11;0.00;0.00;0.62;0.00;0.00;0.62;4.00;1.10;;;23.90;22.70;;;;;;2241425;62;20778;-64
2021/03/12 03:37:56;0.00;0.00;0.62;0.00;0.00;0.62;2.40;1.30;;;23.90;22.70;;;;;;2241250;62;20723;-64
2021/03/12 03:40:40;0.00;0.00;0.62;0.00;0.00;0.62;1.87;0.90;;;23.90;22.70;;;;;;2241477;62;20786;-64
2021/03/12 03:43:30;0.00;0.00;0.62;0.00;0.00;0.62;2.03;1.10;;;23.90;22.70;;;;;;2241503;62;20398;-64
2021/03/12 03:46:17;0.00;0.00;0.62;0.00;0.00;0.62;1.33;0.87;;;23.90;22.70;;;;;;2241558;62;20454;-64
2021/03/12 03:49:05;0.00;0.00;0.62;0.00;0.00;0.62;2.73;1.10;;;23.80;22.60;;;;;;2241999;62;20377;-64
2021/03/12 03:51:58;0.00;0.00;0.62;0.00;0.00;0.62;3.40;1.43;;;23.80;22.60;;;;;;2241114;62;20378;-64
2021/03/12 03:54:51;0.00;0.00;0.62;0.00;0.00;0.62;1.87;1.17;;;23.80;22.60;;;;;;2241684;62;20370;-64
2021/03/12 03:57:37;0.00;0.00;0.62;0.00;0.00;0.62;5.03;2.20;;;23.80;22.60;;;;;;2241318;62;20406;-64
2021/03/12 04:00:23;0.00;0.00;0.62;0.00;0.00;0.62;1.83;1.10;;;23.80;22.50;;;;;;2241163;62;20438;-64
2021/03/12 04:03:17;0.00;0.00;0.62;0.00;0.00;0.62;1.97;1.00;;;23.80;22.50;;;;;;2241612;62;20417;-64
2021/03/12 04:06:12;0.00;0.00;0.62;0.00;0.00;0.62;2.17;1.10;;;23.80;22.50;;;;;;2241088;62;20709;-64
2021/03/12 04:09:00;0.00;0.00;0.62;0.00;0.00;0.62;2.40;1.17;;;23.80;22.50;;;;;;2241471;62;20398;-64
2021/03/12 04:11:47;0.00;0.00;0.62;0.00;0.00;0.62;1.40;0.93;;;23.80;22.50;;;;;;2241585;62;20748;-64
2021/03/12 04:14:42;0.00;0.00;0.62;0.00;0.00;0.62;2.80;0.90;;;23.80;22.50;;;;;;2241119;62;20410;-64
2021/03/12 04:17:27;0.00;0.00;0.62;0.00;0.00;0.62;1.87;1.33;;;23.80;22.50;;;;;;2241452;62;20369;-63
2021/03/12 04:20:13;0.00;0.00;0.62;0.00;0.00;0.62;2.70;1.20;;;23.70;22.40;;;;;;2241603;62;20385;-63
2021/03/12 04:22:59;0.00;0.00;0.62;0.00;0.00;0.62;2.07;1.30;;;23.70;22.40;;;;;;2241213;62;20657;-63
2021/03/12 04:25:50;0.00;0.00;0.62;0.00;0.00;0.62;1.67;1.10;;;23.70;22.40;;;;;;2241696;62;20417;-63
2021/03/12 04:28:34;0.00;0.00;0.62;0.00;0.00;0.62;3.17;1.20;;;23.70;22.40;;;;;;2240772;62;20798;-63
2021/03/12 04:31:21;0.00;0.00;0.62;0.00;0.00;0.62;1.60;1.10;;;23.70;22.40;;;;;;2242017;62;20605;-63
2021/03/12 04:34:05;0.00;0.00;0.62;0.00;0.00;0.62;2.30;1.23;;;23.70;22.40;;;;;;2241511;62;20730;-63
2021/03/12 04:36:51;0.00;0.00;0.62;0.00;0.00;0.62;1.73;1.00;;;23.70;22.40;;;;;;2240963;62;20370;-64
2021/03/12 04:39:37;0.00;0.00;0.62;0.00;0.00;0.62;1.77;1.10;;;23.70;22.40;;;;;;2241518;62;20397;-64
2021/03/12 04:42:24;0.00;0.00;0.62;0.00;0.00;0.62;1.87;1.20;;;23.70;22.40;;;;;;2241340;62;20406;-64
2021/03/12 04:45:11;0.00;0.00;0.62;0.00;0.00;0.62;2.90;0.97;;;23.70;22.40;;;;;;2241518;62;20426;-64
2021/03/12 04:48:00;0.00;0.00;0.62;0.00;0.00;0.62;2.33;0.90;;;23.70;22.40;;;;;;2241435;62;20408;-64
2021/03/12 04:50:48;0.00;0.00;0.62;0.00;0.00;0.62;3.47;1.27;;;23.60;22.30;;;;;;2240822;62;20360;-64
2021/03/12 04:53:34;0.00;0.00;0.62;0.00;0.00;0.62;2.07;1.23;;;23.60;22.30;;;;;;2241443;62;20373;-64
2021/03/12 04:56:19;0.00;0.00;0.62;0.00;0.00;0.62;1.83;1.00;;;23.60;22.30;;;;;;2241876;62;20438;-63
2021/03/12 04:59:05;0.00;0.00;0.62;0.00;0.00;0.62;2.20;1.20;;;23.60;22.30;;;;;;2241041;62;20493;-64
2021/03/12 05:01:51;0.00;0.00;0.62;0.00;0.00;0.62;1.83;1.10;;;23.60;22.80;;;;;;2241539;62;20414;-64
2021/03/12 05:04:37;0.00;0.00;0.62;0.00;0.00;0.62;1.63;0.83;;;23.60;22.30;;;;;;2241185;62;20405;-64
2021/03/12 05:07:25;0.00;0.00;0.62;0.00;0.00;0.62;2.00;1.10;;;23.60;22.30;;;;;;2241121;62;20366;-64
2021/03/12 05:10:26;0.00;0.00;0.62;0.00;0.00;0.62;1.80;1.17;;;23.60;22.30;;;;;;2242091;62;20615;-64
2021/03/12 05:13:11;0.00;0.00;0.62;0.00;0.00;0.62;1.90;1.10;;;23.60;22.30;;;;;;2241258;62;20438;-64
2021/03/12 05:16:00;0.00;0.00;0.62;0.00;0.00;0.62;2.10;1.00;;;23.60;22.80;;;;;;2242188;62;20369;-64
2021/03/12 05:18:45;0.00;0.00;0.62;0.00;0.00;0.62;1.53;1.07;;;23.60;22.20;;;;;;2241749;62;20386;-63
2021/03/12 05:21:30;0.00;0.00;0.62;0.00;0.00;0.62;1.87;1.10;;;23.60;22.20;;;;;;2242157;62;20424;-63
2021/03/12 05:24:16;0.00;0.00;0.62;0.00;0.00;0.62;2.03;0.90;;;23.60;22.20;;;;;;2242059;62;20369;-64
2021/03/12 05:27:02;0.00;0.00;0.62;0.00;0.00;0.62;2.83;1.20;;;23.60;22.20;;;;;;2241694;62;20450;-64
2021/03/12 05:29:54;0.00;0.00;0.62;0.00;0.00;0.62;2.27;1.27;;;23.60;22.10;;;;;;2242550;62;20584;-63
2021/03/12 05:32:41;0.00;0.00;0.62;0.00;0.00;0.62;2.70;1.10;;;23.50;22.00;;;;;;2241930;62;20772;-64
2021/03/12 05:35:28;0.00;0.00;0.62;0.00;0.00;0.62;1.33;0.70;;;23.50;22.10;;;;;;2241414;62;20482;-63
2021/03/12 05:38:13;0.00;0.00;0.62;0.00;0.00;0.62;4.33;1.40;;;23.50;22.10;;;;;;2241875;62;20369;-63
2021/03/12 05:40:57;0.00;0.00;0.62;0.00;0.00;0.62;2.97;1.10;;;23.50;22.00;;;;;;2242208;62;20641;-64
2021/03/12 05:43:43;0.00;0.00;0.62;0.00;0.00;0.62;2.10;1.03;;;23.50;22.60;;;;;;2242189;62;20767;-63
2021/03/12 05:46:28;0.00;0.00;0.62;0.00;0.00;0.62;2.30;1.20;;;23.50;22.10;;;;;;2242322;62;20362;-64
2021/03/12 05:49:15;0.00;0.00;0.62;0.00;0.00;0.62;1.50;0.97;;;23.50;22.60;;;;;;2241937;62;20407;-63
2021/03/12 05:52:01;0.00;0.00;0.62;0.00;0.00;0.62;2.40;0.90;;;23.50;22.10;;;;;;2241797;62;20468;-64
2021/03/12 05:54:47;0.00;0.00;0.62;0.00;0.00;0.62;1.93;1.00;;;23.40;22.00;;;;;;2242180;62;20479;-63
2021/03/12 05:57:35;0.00;0.00;0.62;0.00;0.00;0.62;2.47;1.00;;;23.40;22.00;;;;;;2241720;62;20364;-64
2021/03/12 06:00:21;0.00;0.00;0.62;0.00;0.00;0.62;1.80;1.00;;;23.40;22.00;;;;;;2242278;62;20664;-63
2021/03/12 06:03:11;0.00;0.00;0.62;0.00;0.00;0.62;1.80;1.13;;;23.40;22.00;;;;;;2242024;62;20360;-64
2021/03/12 06:06:05;0.00;0.00;0.62;0.00;0.00;0.62;2.53;1.40;;;23.40;22.00;;;;;;2242083;62;20607;-64
2021/03/12 06:08:55;0.00;0.00;0.62;0.00;0.00;0.62;1.50;0.90;;;23.40;22.00;;;;;;2241915;62;20387;-64
2021/03/12 06:11:40;0.00;0.00;0.62;0.00;0.00;0.62;1.70;1.10;;;23.40;22.00;;;;;;2242037;62;20442;-63
2021/03/12 06:14:50;0.00;0.00;0.62;0.00;0.00;0.62;2.43;0.87;;;23.40;22.00;;;;;;2241716;62;20365;-64
2021/03/12 06:17:49;0.00;0.00;0.62;0.00;0.00;0.62;1.87;1.10;;;23.40;22.00;;;;;;2241989;62;20690;-64
2021/03/12 06:20:42;0.00;0.00;0.62;0.00;0.00;0.62;1.60;1.00;;;23.40;22.00;;;;;;2241553;62;20790;-63
2021/03/12 06:23:35;0.00;0.00;0.62;0.00;0.00;0.62;2.00;1.30;;;23.40;22.00;;;;;;2241849;62;20587;-64
2021/03/12 06:26:42;0.00;0.00;0.62;0.00;0.00;0.62;2.47;1.20;;;23.30;22.00;;;;;;2241660;62;20378;-64
2021/03/12 06:29:34;0.00;0.00;0.62;0.00;0.00;0.62;3.20;1.30;;;23.30;21.90;;;;;;2241799;62;20380;-64
2021/03/12 06:32:44;0.00;0.00;0.62;0.00;0.00;0.62;1.90;1.50;;;23.30;22.00;;;;;;2241837;62;20365;-63
2021/03/12 06:35:38;0.00;0.00;0.62;0.00;0.00;0.62;2.70;1.57;;;23.30;22.00;;;;;;2241593;62;20419;-64
2021/03/12 06:38:32;0.00;0.00;0.62;0.00;0.00;0.62;1.83;1.20;;;23.30;21.90;;;;;;2241584;62;20389;-64
2021/03/12 06:41:45;0.00;0.00;0.62;0.00;0.00;0.62;1.90;1.30;;;23.30;21.90;;;;;;2241558;62;20377;-63
2021/03/12 06:44:36;0.00;0.00;0.62;0.00;0.00;0.62;2.77;1.90;;;23.30;21.90;;;;;;2241755;62;20357;-64
2021/03/12 06:47:26;0.00;0.00;0.62;0.00;0.00;0.62;3.00;1.70;;;23.30;21.90;;;;;;2241706;62;20392;-64
2021/03/12 06:50:21;0.00;0.00;0.62;0.00;0.00;0.62;2.80;1.30;;;23.30;21.90;;;;;;2241465;62;20388;-64
2021/03/12 06:53:22;0.00;0.00;0.62;0.00;0.00;0.62;2.13;1.20;;;23.30;21.90;;;;;;2242077;62;20734;-64
2021/03/12 06:56:13;0.00;0.00;0.62;0.00;0.00;0.62;2.03;1.03;;;23.30;21.90;;;;;;2241521;62;20361;-64
2021/03/12 06:59:10;0.00;0.00;0.62;0.00;0.00;0.62;3.30;1.50;;;23.30;21.90;;;;;;2241548;62;20394;-63
2021/03/12 07:02:15;0.00;0.00;0.62;0.00;0.00;0.62;2.80;1.40;;;23.30;21.90;;;;;;2241754;62;20438;-64
2021/03/12 07:05:07;0.00;0.00;0.62;0.00;0.00;0.62;3.53;1.40;;;23.30;21.90;;;;;;2241433;62;20438;-64
2021/03/12 07:08:04;0.00;0.00;0.62;0.00;0.00;0.62;2.40;1.20;;;23.30;21.90;;;;;;2241620;62;20369;-64
2021/03/12 07:11:23;0.00;0.00;0.62;0.00;0.00;0.62;2.87;1.50;;;23.30;21.90;;;;;;2241310;62;20369;-64
2021/03/12 07:14:28;0.00;0.00;0.62;0.00;0.00;0.62;2.03;1.10;;;23.30;21.90;;;;;;2242005;62;20410;-64
2021/03/12 07:17:17;0.00;0.00;0.62;0.00;0.00;0.62;2.00;1.20;;;23.30;21.90;;;;;;2241345;62;20390;-64
2021/03/12 07:20:07;0.00;0.00;0.62;0.00;0.00;0.62;3.93;1.50;;;23.30;21.90;;;;;;2241371;62;20435;-64
2021/03/12 07:22:55;0.00;0.00;0.62;0.00;0.00;0.62;2.33;1.20;;;23.30;21.90;;;;;;2241700;62;20496;-64
2021/03/12 07:25:43;0.00;0.00;0.62;0.00;0.00;0.62;1.97;1.27;;;23.30;21.90;;;;;;2238640;62;20427;-64
2021/03/12 07:28:30;0.00;0.00;0.62;0.00;0.00;0.62;2.07;1.27;;;23.30;21.90;;;;;;2241465;62;20453;-64
2021/03/12 07:31:52;0.00;0.00;0.62;0.00;0.00;0.62;2.17;1.50;;;23.30;21.90;;;;;;2241860;61;20752;-64
2021/03/12 07:34:42;0.00;0.00;0.62;0.00;0.00;0.62;3.00;1.67;;;23.20;21.80;;;;;;2241192;62;20364;-64
2021/03/12 07:37:42;0.00;0.00;0.62;0.00;0.00;0.62;2.60;1.40;;;23.20;21.70;;;;;;2241614;62;20409;-64
2021/03/12 07:40:29;0.00;0.00;0.62;0.00;0.00;0.62;3.13;1.60;;;23.20;21.70;;;;;;2241294;62;20765;-64
2021/03/12 07:43:21;0.00;0.00;0.62;0.00;0.00;0.62;3.07;1.80;;;23.20;21.70;;;;;;2241602;62;20366;-64
2021/03/12 07:46:28;0.00;0.00;0.62;0.00;0.00;0.62;3.43;1.90;;;23.20;21.70;;;;;;2241604;62;20371;-66
2021/03/12 07:49:35;0.00;0.00;0.62;0.00;0.00;0.62;5.53;3.07;;;23.20;21.70;;;;;;2241210;62;20390;-62
2021/03/12 07:52:50;0.00;0.00;0.62;0.00;0.00;0.62;5.03;3.63;;;23.20;21.70;;;;;;2241592;62;20373;-63
2021/03/12 07:56:00;0.00;0.00;0.62;0.00;0.00;0.62;6.53;3.93;;;23.20;21.70;;;;;;2241039;62;20357;-60
2021/03/12 07:59:03;0.00;0.00;0.62;0.00;0.00;0.62;4.10;3.50;;;23.20;21.70;;;;;;2241952;62;20742;-64
2021/03/12 08:02:20;0.00;0.00;0.62;0.00;0.00;0.62;4.80;3.87;;;23.20;21.80;;;;;;2241028;62;20454;-65
2021/03/12 08:05:40;0.00;0.00;0.62;0.00;0.00;0.62;6.40;3.13;;;23.20;21.80;;;;;;2240297;62;20497;-65
2021/03/12 08:08:34;0.00;0.00;0.62;0.00;0.00;0.62;4.27;2.90;;;23.20;21.90;;;;;;2241422;62;20398;-63
2021/03/12 08:11:38;0.00;0.00;0.62;0.00;0.00;0.62;3.50;2.87;;;23.20;21.90;;;;;;2241188;62;20744;-63
2021/03/12 08:14:37;0.00;0.00;0.62;0.00;0.00;0.62;5.07;2.93;;;23.30;22.00;;;;;;2241427;62;20384;-63
2021/03/12 08:17:32;0.00;0.00;0.62;0.00;0.00;0.62;4.30;2.30;;;23.20;22.00;;;;;;2241142;62;20375;-63
2021/03/12 08:20:37;0.00;0.00;0.62;0.00;0.00;0.62;3.10;2.23;;;23.30;22.10;;;;;;2240499;62;20550;-64
2021/03/12 08:23:34;0.00;0.00;0.62;0.00;0.00;0.62;2.70;2.40;;;23.30;22.20;;;;;;2241348;62;20767;-63
2021/03/12 08:26:48;0.00;0.00;0.62;0.00;0.00;0.62;7.70;3.37;;;23.30;22.20;;;;;;2241106;62;20382;-64
2021/03/12 08:29:51;0.00;0.00;0.62;0.00;0.00;0.62;4.20;3.23;;;23.30;21.70;;;;;;2241898;62;20403;-63
2021/03/12 08:32:48;0.00;0.00;0.62;0.00;0.00;0.62;9.23;3.07;;;23.30;21.10;;;;;;2240768;62;20371;-65
2021/03/12 08:35:50;0.00;0.00;0.62;0.00;0.00;0.62;3.63;2.40;;;23.20;20.90;;;;;;2241506;62;20740;-62
2021/03/12 08:38:54;0.00;0.00;0.62;0.00;0.00;0.62;3.77;2.60;;;23.10;20.70;;;;;;2241515;62;20798;-61
2021/03/12 08:41:40;0.00;0.00;0.62;0.00;0.00;0.62;6.53;3.10;;;23.00;20.60;;;;;;2241938;61;20403;-62
2021/03/12 08:45:00;0.00;0.00;0.62;0.00;0.00;0.62;5.70;3.10;;;22.90;20.90;;;;;;2237749;62;20402;-61
2021/03/12 08:48:09;0.00;0.00;0.62;0.00;0.00;0.62;4.70;2.87;;;22.80;20.30;;;;;;2241460;62;20636;-61
2021/03/12 08:50:57;0.00;0.00;0.62;0.00;0.00;0.62;7.40;2.87;;;22.70;20.30;;;;;;2242084;62;20486;-61
2021/03/12 08:53:47;0.00;0.00;0.62;0.00;0.00;0.62;5.30;2.60;;;22.50;20.20;;;;;;2242099;62;20369;-62
2021/03/12 08:56:34;0.00;0.00;0.62;0.00;0.00;0.62;4.40;2.10;;;22.40;20.20;;;;;;2241724;62;20442;-62
2021/03/12 08:59:27;0.00;0.00;0.62;0.00;0.00;0.62;3.93;2.17;;;22.30;20.10;;;;;;2241904;62;20394;-61
2021/03/12 09:02:24;0.00;0.00;0.62;0.00;0.00;0.62;8.47;2.80;;;22.30;20.20;;;;;;2241489;62;20398;-61
2021/03/12 09:05:29;0.00;0.00;0.62;0.00;0.00;0.62;3.93;2.20;;;22.10;20.20;;;;;;2241981;62;20448;-61
2021/03/12 09:08:39;0.00;0.00;0.62;0.00;0.00;0.62;3.00;2.27;;;22.10;20.20;;;;;;2241602;62;20436;-61
2021/03/12 09:11:59;0.00;0.00;0.62;0.00;0.00;0.62;4.03;2.10;;;22.00;20.20;;;;;;2242077;62;20364;-61
2021/03/12 09:15:01;0.00;0.00;0.62;0.00;0.00;0.62;6.20;2.30;;;21.90;20.10;;;;;;2241974;62;20373;-61
2021/03/12 09:17:47;0.00;0.00;0.62;0.00;0.00;0.62;6.37;2.07;;;21.80;20.20;;;;;;2241289;62;20453;-60
2021/03/12 09:20:36;0.00;0.00;0.62;0.00;0.00;0.62;4.47;2.03;;;21.80;20.70;;;;;;2241913;62;20493;-60
2021/03/12 09:23:40;0.00;0.00;0.62;0.00;0.00;0.62;2.53;1.40;;;21.80;20.90;;;;;;2241847;62;20376;-61
2021/03/12 09:26:28;0.00;0.00;0.62;0.00;0.00;0.62;3.87;1.80;;;21.80;21.10;;;;;;2241591;62;20465;-61
2021/03/12 09:29:21;0.00;0.00;0.62;0.00;0.00;0.62;5.83;1.97;;;21.80;21.20;;;;;;2241949;62;20384;-61
2021/03/12 09:32:07;0.00;0.00;0.62;0.00;0.00;0.62;2.83;1.90;;;21.90;21.30;;;;;;2241964;62;20413;-60
2021/03/12 09:34:59;0.00;0.00;0.62;0.00;0.00;0.62;3.60;1.70;;;22.00;21.40;;;;;;2241836;62;20365;-61
2021/03/12 09:37:47;0.00;0.00;0.62;0.00;0.00;0.62;3.20;2.00;;;22.00;21.40;;;;;;2241765;62;20364;-61
2021/03/12 09:40:42;0.00;0.00;0.62;0.00;0.00;0.62;2.30;1.40;;;22.10;21.50;;;;;;2241879;62;20652;-61
2021/03/12 09:43:39;0.00;0.00;0.62;0.00;0.00;0.62;3.10;1.57;;;22.10;21.50;;;;;;2242437;62;20365;-61
2021/03/12 09:46:32;0.00;0.00;0.62;0.00;0.00;0.62;3.83;1.60;;;22.20;21.60;;;;;;2241394;62;20374;-61
2021/03/12 09:49:21;0.00;0.00;0.62;0.00;0.00;0.62;2.27;1.13;;;22.20;21.60;;;;;;2241850;62;20427;-61
2021/03/12 09:52:09;0.00;0.00;0.62;0.00;0.00;0.62;2.50;1.40;;;22.30;21.70;;;;;;2241974;62;20370;-61
2021/03/12 09:54:58;0.00;0.00;0.62;0.00;0.00;0.62;3.40;1.60;;;22.40;21.70;;;;;;2241227;62;20365;-61
2021/03/12 09:57:44;0.00;0.00;0.62;0.00;0.00;0.62;1.77;0.93;;;22.40;21.70;;;;;;2241840;62;20825;-61
2021/03/12 10:00:36;0.00;0.00;0.62;0.00;0.00;0.62;5.33;1.37;;;22.40;21.70;;;;;;2241648;62;20433;-61
2021/03/12 10:03:31;0.00;0.00;0.62;0.00;0.00;0.62;2.93;1.83;;;22.50;21.80;;;;;;2241617;62;20415;-60
2021/03/12 10:06:27;0.00;0.00;0.62;0.00;0.00;0.62;3.70;1.80;;;22.50;21.80;;;;;;2242398;62;20828;-61
2021/03/12 10:09:23;0.00;0.00;0.62;0.00;0.00;0.62;2.80;1.37;;;22.50;21.80;;;;;;2241193;62;20676;-61
2021/03/12 10:12:41;0.00;0.00;0.62;0.00;0.00;0.62;2.67;1.40;;;22.60;21.80;;;;;;2242300;62;20498;-61
2021/03/12 10:15:32;0.00;0.00;0.62;0.00;0.00;0.62;3.10;1.40;;;22.60;21.80;;;;;;2241604;62;20378;-61
2021/03/12 10:18:26;0.00;0.00;0.62;0.00;0.00;0.62;1.70;1.30;;;22.70;21.90;;;;;;2241565;62;20434;-61
2021/03/12 10:21:11;0.00;0.00;0.62;0.00;0.00;0.62;1.63;1.17;;;22.70;21.90;;;;;;2242307;62;20478;-61
2021/03/12 10:23:56;0.00;0.00;0.62;0.00;0.00;0.62;2.20;1.33;;;22.70;21.90;;;;;;2241486;62;20592;-61
2021/03/12 10:26:43;0.00;0.00;0.62;0.00;0.00;0.62;1.80;1.40;;;22.80;21.90;;;;;;2242196;62;20393;-61
2021/03/12 10:29:28;0.00;0.00;0.62;0.00;0.00;0.62;2.57;1.60;;;22.80;21.90;;;;;;2242133;62;20389;-61
2021/03/12 10:32:13;0.00;0.00;0.62;0.00;0.00;0.62;2.47;1.47;;;22.80;21.90;;;;;;2241589;62;20369;-61
2021/03/12 10:35:00;0.00;0.00;0.62;0.00;0.00;0.62;2.33;1.23;;;22.90;22.00;;;;;;2242178;62;20379;-61
2021/03/12 10:37:45;0.00;0.00;0.62;0.00;0.00;0.62;2.70;1.23;;;22.90;22.00;;;;;;2241693;62;20366;-61
2021/03/12 10:40:37;0.00;0.00;0.62;0.00;0.00;0.62;2.87;1.17;;;22.90;21.90;;;;;;2241962;62;20463;-61
2021/03/12 10:43:29;0.00;0.00;0.62;0.00;0.00;0.62;1.90;1.10;;;23.00;22.00;;;;;;2242172;62;20370;-61
2021/03/12 10:46:19;0.00;0.00;0.62;0.00;0.00;0.62;3.20;1.40;;;23.00;22.00;;;;;;2241574;62;20369;-61
2021/03/12 10:49:06;0.00;0.00;0.62;0.00;0.00;0.62;4.23;1.60;;;23.00;22.00;;;;;;2241851;62;20753;-61
2021/03/12 10:51:51;0.00;0.00;0.62;0.00;0.00;0.62;2.10;1.33;;;23.10;22.00;;;;;;2241887;62;20405;-61
2021/03/12 10:54:35;0.00;0.00;0.62;0.00;0.00;0.62;2.43;1.17;;;23.10;22.00;;;;;;2241862;62;20364;-61
2021/03/12 10:57:42;0.00;0.00;0.62;0.00;0.00;0.62;1.60;1.20;;;23.10;22.10;;;;;;2242162;62;20361;-61
2021/03/12 11:00:28;0.00;0.00;0.62;0.00;0.00;0.62;1.57;1.27;;;23.20;22.00;;;;;;2241793;62;20401;-61
2021/03/12 11:03:13;0.00;0.00;0.62;0.00;0.00;0.62;1.87;1.33;;;23.20;22.00;;;;;;2242234;62;20482;-61
2021/03/12 11:05:58;0.00;0.00;0.62;0.00;0.00;0.62;2.23;1.40;;;23.20;22.00;;;;;;2242029;62;20369;-61
2021/03/12 11:08:43;0.00;0.00;0.62;0.00;0.00;0.62;2.27;1.20;;;23.30;22.10;;;;;;2241550;62;20495;-61
2021/03/12 11:11:28;0.00;0.00;0.62;0.00;0.00;0.62;1.40;1.10;;;23.30;22.00;;;;;;2242227;62;20770;-60
2021/03/12 11:14:13;0.00;0.00;0.62;0.00;0.00;0.62;4.07;1.47;;;23.30;22.00;;;;;;2241694;62;20411;-61
2021/03/12 11:16:57;0.00;0.00;0.62;0.00;0.00;0.62;3.07;1.30;;;23.40;22.00;;;;;;2241850;62;20363;-61